sensor_id;sensor_type;location;lat;lon;timestamp;P1;durP1;ratioP1;P2;durP2;ratioP2
73670;SDS011;61968;48.178;11.566;2022-12-18T00:00:06;23.63;;;9.07;;
73670;SDS011;61968;48.178;11.566;2022-12-18T00:02:34;26.27;;;9.05;;
73670;SDS011;61968;48.178;11.566;2022-12-18T00:05:01;31.05;;;11.65;;
73670;SDS011;61968;48.178;11.566;2022-12-18T00:07:27;32.65;;;10.95;;
73670;SDS011;61968;48.178;11.566;2022-12-18T00:09:54;32.70;;;10.73;;
73670;SDS011;61968;48.178;11.566;2022-12-18T00:12:21;29.00;;;9.55;;
73670;SDS011;61968;48.178;11.566;2022-12-18T00:14:49;27.63;;;10.00;;
73670;SDS011;61968;48.178;11.566;2022-12-18T00:17:15;29.85;;;12.10;;
73670;SDS011;61968;48.178;11.566;2022-12-18T00:19:42;28.88;;;9.85;;
73670;SDS011;61968;48.178;11.566;2022-12-18T00:22:08;31.02;;;11.32;;
73670;SDS011;61968;48.178;11.566;2022-12-18T00:24:35;30.70;;;10.68;;
73670;SDS011;61968;48.178;11.566;2022-12-18T00:27:01;31.83;;;11.85;;
73670;SDS011;61968;48.178;11.566;2022-12-18T00:29:28;36.30;;;12.73;;
73670;SDS011;61968;48.178;11.566;2022-12-18T00:31:56;29.80;;;9.88;;
73670;SDS011;61968;48.178;11.566;2022-12-18T00:34:22;27.90;;;10.05;;
73670;SDS011;61968;48.178;11.566;2022-12-18T00:36:48;33.50;;;10.05;;
73670;SDS011;61968;48.178;11.566;2022-12-18T00:39:15;33.40;;;10.45;;
73670;SDS011;61968;48.178;11.566;2022-12-18T00:41:42;32.78;;;10.20;;
73670;SDS011;61968;48.178;11.566;2022-12-18T00:44:26;31.65;;;9.35;;
73670;SDS011;61968;48.178;11.566;2022-12-18T00:46:52;30.63;;;8.70;;
73670;SDS011;61968;48.178;11.566;2022-12-18T00:49:20;30.70;;;10.63;;
73670;SDS011;61968;48.178;11.566;2022-12-18T00:51:47;26.52;;;8.60;;
73670;SDS011;61968;48.178;11.566;2022-12-18T00:54:14;33.95;;;12.50;;
73670;SDS011;61968;48.178;11.566;2022-12-18T00:56:41;26.35;;;10.25;;
73670;SDS011;61968;48.178;11.566;2022-12-18T00:59:07;29.20;;;9.88;;
73670;SDS011;61968;48.178;11.566;2022-12-18T01:01:34;26.75;;;8.05;;
73670;SDS011;61968;48.178;11.566;2022-12-18T01:04:01;23.88;;;8.73;;
73670;SDS011;61968;48.178;11.566;2022-12-18T01:06:29;26.63;;;9.40;;
73670;SDS011;61968;48.178;11.566;2022-12-18T01:08:56;28.42;;;9.48;;
73670;SDS011;61968;48.178;11.566;2022-12-18T01:11:23;26.90;;;9.45;;
73670;SDS011;61968;48.178;11.566;2022-12-18T01:16:17;28.23;;;9.00;;
73670;SDS011;61968;48.178;11.566;2022-12-18T01:18:44;21.58;;;9.02;;
73670;SDS011;61968;48.178;11.566;2022-12-18T01:21:11;30.83;;;8.60;;
73670;SDS011;61968;48.178;11.566;2022-12-18T01:23:41;32.75;;;9.48;;
73670;SDS011;61968;48.178;11.566;2022-12-18T01:26:08;19.70;;;7.15;;
73670;SDS011;61968;48.178;11.566;2022-12-18T01:28:36;27.42;;;9.00;;
73670;SDS011;61968;48.178;11.566;2022-12-18T01:31:10;28.95;;;10.50;;
73670;SDS011;61968;48.178;11.566;2022-12-18T01:33:38;20.73;;;8.43;;
73670;SDS011;61968;48.178;11.566;2022-12-18T01:36:04;25.85;;;8.23;;
73670;SDS011;61968;48.178;11.566;2022-12-18T01:40:59;20.42;;;8.45;;
73670;SDS011;61968;48.178;11.566;2022-12-18T01:43:40;28.38;;;9.55;;
73670;SDS011;61968;48.178;11.566;2022-12-18T01:46:07;27.15;;;9.77;;
73670;SDS011;61968;48.178;11.566;2022-12-18T01:48:34;35.47;;;11.75;;
73670;SDS011;61968;48.178;11.566;2022-12-18T01:51:01;28.17;;;9.82;;
73670;SDS011;61968;48.178;11.566;2022-12-18T01:53:27;32.17;;;10.00;;
73670;SDS011;61968;48.178;11.566;2022-12-18T01:55:54;28.55;;;10.45;;
73670;SDS011;61968;48.178;11.566;2022-12-18T01:58:27;28.27;;;11.98;;
73670;SDS011;61968;48.178;11.566;2022-12-18T02:01:01;29.77;;;10.05;;
73670;SDS011;61968;48.178;11.566;2022-12-18T02:03:28;39.53;;;12.85;;
73670;SDS011;61968;48.178;11.566;2022-12-18T02:05:56;27.17;;;9.70;;
73670;SDS011;61968;48.178;11.566;2022-12-18T02:08:32;26.13;;;9.70;;
73670;SDS011;61968;48.178;11.566;2022-12-18T02:11:06;32.40;;;9.77;;
73670;SDS011;61968;48.178;11.566;2022-12-18T02:13:41;28.30;;;9.23;;
73670;SDS011;61968;48.178;11.566;2022-12-18T02:16:15;32.65;;;9.52;;
73670;SDS011;61968;48.178;11.566;2022-12-18T02:18:48;28.05;;;12.15;;
73670;SDS011;61968;48.178;11.566;2022-12-18T02:21:21;33.60;;;11.77;;
73670;SDS011;61968;48.178;11.566;2022-12-18T02:23:56;28.23;;;10.80;;
73670;SDS011;61968;48.178;11.566;2022-12-18T02:26:33;26.55;;;10.18;;
73670;SDS011;61968;48.178;11.566;2022-12-18T02:29:03;30.67;;;9.43;;
73670;SDS011;61968;48.178;11.566;2022-12-18T02:31:35;25.42;;;9.30;;
73670;SDS011;61968;48.178;11.566;2022-12-18T02:34:05;32.42;;;11.50;;
73670;SDS011;61968;48.178;11.566;2022-12-18T02:36:34;32.05;;;12.10;;
73670;SDS011;61968;48.178;11.566;2022-12-18T02:39:04;31.08;;;11.60;;
73670;SDS011;61968;48.178;11.566;2022-12-18T02:41:35;32.85;;;11.85;;
73670;SDS011;61968;48.178;11.566;2022-12-18T02:44:07;33.25;;;11.57;;
73670;SDS011;61968;48.178;11.566;2022-12-18T02:46:36;37.33;;;11.48;;
73670;SDS011;61968;48.178;11.566;2022-12-18T02:49:08;37.53;;;9.93;;
73670;SDS011;61968;48.178;11.566;2022-12-18T02:51:46;30.92;;;10.88;;
73670;SDS011;61968;48.178;11.566;2022-12-18T02:56:49;37.03;;;13.10;;
73670;SDS011;61968;48.178;11.566;2022-12-18T02:59:21;28.50;;;11.63;;
73670;SDS011;61968;48.178;11.566;2022-12-18T03:01:55;30.35;;;11.50;;
73670;SDS011;61968;48.178;11.566;2022-12-18T03:04:25;27.92;;;9.70;;
73670;SDS011;61968;48.178;11.566;2022-12-18T03:06:54;31.73;;;10.45;;
73670;SDS011;61968;48.178;11.566;2022-12-18T03:09:24;30.92;;;10.52;;
73670;SDS011;61968;48.178;11.566;2022-12-18T03:11:58;25.33;;;8.52;;
73670;SDS011;61968;48.178;11.566;2022-12-18T03:14:48;30.92;;;9.32;;
73670;SDS011;61968;48.178;11.566;2022-12-18T03:17:20;35.53;;;11.48;;
73670;SDS011;61968;48.178;11.566;2022-12-18T03:19:51;38.72;;;12.52;;
73670;SDS011;61968;48.178;11.566;2022-12-18T03:22:20;32.10;;;11.35;;
73670;SDS011;61968;48.178;11.566;2022-12-18T03:24:49;36.03;;;11.25;;
73670;SDS011;61968;48.178;11.566;2022-12-18T03:27:19;26.13;;;9.52;;
73670;SDS011;61968;48.178;11.566;2022-12-18T03:29:50;30.38;;;12.40;;
73670;SDS011;61968;48.178;11.566;2022-12-18T03:32:23;30.95;;;10.73;;
73670;SDS011;61968;48.178;11.566;2022-12-18T03:34:54;28.90;;;10.90;;
73670;SDS011;61968;48.178;11.566;2022-12-18T03:37:25;33.00;;;12.02;;
73670;SDS011;61968;48.178;11.566;2022-12-18T03:39:52;28.15;;;10.45;;
73670;SDS011;61968;48.178;11.566;2022-12-18T03:42:21;28.73;;;11.07;;
73670;SDS011;61968;48.178;11.566;2022-12-18T03:44:54;33.03;;;10.88;;
73670;SDS011;61968;48.178;11.566;2022-12-18T03:47:28;32.50;;;10.63;;
73670;SDS011;61968;48.178;11.566;2022-12-18T03:50:02;29.05;;;10.25;;
73670;SDS011;61968;48.178;11.566;2022-12-18T03:52:37;30.13;;;11.57;;
73670;SDS011;61968;48.178;11.566;2022-12-18T03:55:08;30.00;;;10.93;;
73670;SDS011;61968;48.178;11.566;2022-12-18T03:57:38;35.33;;;11.15;;
73670;SDS011;61968;48.178;11.566;2022-12-18T04:00:06;39.25;;;12.68;;
73670;SDS011;61968;48.178;11.566;2022-12-18T04:02:35;29.27;;;10.75;;
73670;SDS011;61968;48.178;11.566;2022-12-18T04:05:05;36.72;;;11.45;;
73670;SDS011;61968;48.178;11.566;2022-12-18T04:07:35;34.40;;;11.95;;
73670;SDS011;61968;48.178;11.566;2022-12-18T04:10:02;30.20;;;10.15;;
73670;SDS011;61968;48.178;11.566;2022-12-18T04:12:32;25.05;;;7.72;;
73670;SDS011;61968;48.178;11.566;2022-12-18T04:15:00;26.45;;;10.60;;
73670;SDS011;61968;48.178;11.566;2022-12-18T04:17:26;30.95;;;11.02;;
73670;SDS011;61968;48.178;11.566;2022-12-18T04:19:53;27.35;;;9.70;;
73670;SDS011;61968;48.178;11.566;2022-12-18T04:22:19;26.55;;;9.23;;
73670;SDS011;61968;48.178;11.566;2022-12-18T04:24:46;27.50;;;9.68;;
73670;SDS011;61968;48.178;11.566;2022-12-18T04:27:13;29.02;;;10.02;;
73670;SDS011;61968;48.178;11.566;2022-12-18T04:29:39;24.48;;;9.60;;
73670;SDS011;61968;48.178;11.566;2022-12-18T04:32:08;28.05;;;9.93;;
73670;SDS011;61968;48.178;11.566;2022-12-18T04:34:34;23.13;;;8.32;;
73670;SDS011;61968;48.178;11.566;2022-12-18T04:37:01;26.60;;;10.18;;
73670;SDS011;61968;48.178;11.566;2022-12-18T04:39:27;30.98;;;10.38;;
73670;SDS011;61968;48.178;11.566;2022-12-18T04:41:54;29.33;;;9.27;;
73670;SDS011;61968;48.178;11.566;2022-12-18T04:44:20;30.55;;;10.95;;
73670;SDS011;61968;48.178;11.566;2022-12-18T04:46:47;31.13;;;9.95;;
73670;SDS011;61968;48.178;11.566;2022-12-18T04:49:15;23.58;;;8.90;;
73670;SDS011;61968;48.178;11.566;2022-12-18T04:51:41;27.00;;;9.90;;
73670;SDS011;61968;48.178;11.566;2022-12-18T04:54:08;27.75;;;9.73;;
73670;SDS011;61968;48.178;11.566;2022-12-18T04:56:34;33.58;;;9.80;;
73670;SDS011;61968;48.178;11.566;2022-12-18T04:59:01;30.45;;;10.60;;
73670;SDS011;61968;48.178;11.566;2022-12-18T05:01:28;30.73;;;9.30;;
73670;SDS011;61968;48.178;11.566;2022-12-18T05:03:54;25.67;;;10.45;;
73670;SDS011;61968;48.178;11.566;2022-12-18T05:06:22;24.50;;;8.80;;
73670;SDS011;61968;48.178;11.566;2022-12-18T05:08:49;21.52;;;7.60;;
73670;SDS011;61968;48.178;11.566;2022-12-18T05:11:15;30.80;;;10.30;;
73670;SDS011;61968;48.178;11.566;2022-12-18T05:13:42;28.52;;;9.35;;
73670;SDS011;61968;48.178;11.566;2022-12-18T05:16:09;27.90;;;9.70;;
73670;SDS011;61968;48.178;11.566;2022-12-18T05:18:36;30.13;;;9.48;;
73670;SDS011;61968;48.178;11.566;2022-12-18T05:21:03;28.83;;;9.88;;
73670;SDS011;61968;48.178;11.566;2022-12-18T05:23:38;31.00;;;10.60;;
73670;SDS011;61968;48.178;11.566;2022-12-18T05:26:05;21.33;;;8.65;;
73670;SDS011;61968;48.178;11.566;2022-12-18T05:28:33;22.15;;;7.85;;
73670;SDS011;61968;48.178;11.566;2022-12-18T05:31:02;26.23;;;10.32;;
73670;SDS011;61968;48.178;11.566;2022-12-18T05:33:30;19.30;;;7.75;;
73670;SDS011;61968;48.178;11.566;2022-12-18T05:35:59;21.48;;;8.57;;
73670;SDS011;61968;48.178;11.566;2022-12-18T05:38:28;23.83;;;9.10;;
73670;SDS011;61968;48.178;11.566;2022-12-18T05:40:57;30.45;;;9.88;;
73670;SDS011;61968;48.178;11.566;2022-12-18T05:43:24;22.40;;;8.57;;
73670;SDS011;61968;48.178;11.566;2022-12-18T05:45:52;22.63;;;8.18;;
73670;SDS011;61968;48.178;11.566;2022-12-18T05:48:19;22.77;;;7.65;;
73670;SDS011;61968;48.178;11.566;2022-12-18T05:50:47;30.60;;;11.07;;
73670;SDS011;61968;48.178;11.566;2022-12-18T05:53:16;24.77;;;8.57;;
73670;SDS011;61968;48.178;11.566;2022-12-18T05:55:44;21.80;;;8.15;;
73670;SDS011;61968;48.178;11.566;2022-12-18T05:58:13;28.45;;;8.10;;
73670;SDS011;61968;48.178;11.566;2022-12-18T06:00:40;21.65;;;10.13;;
73670;SDS011;61968;48.178;11.566;2022-12-18T06:03:08;21.15;;;7.68;;
73670;SDS011;61968;48.178;11.566;2022-12-18T06:05:36;18.02;;;8.45;;
73670;SDS011;61968;48.178;11.566;2022-12-18T06:08:04;22.38;;;9.50;;
73670;SDS011;61968;48.178;11.566;2022-12-18T06:10:32;25.85;;;8.38;;
73670;SDS011;61968;48.178;11.566;2022-12-18T06:12:58;25.52;;;8.60;;
73670;SDS011;61968;48.178;11.566;2022-12-18T06:15:26;28.52;;;10.30;;
73670;SDS011;61968;48.178;11.566;2022-12-18T06:17:53;27.02;;;9.05;;
73670;SDS011;61968;48.178;11.566;2022-12-18T06:20:20;24.75;;;7.78;;
73670;SDS011;61968;48.178;11.566;2022-12-18T06:22:46;29.13;;;9.05;;
73670;SDS011;61968;48.178;11.566;2022-12-18T06:25:13;30.55;;;10.23;;
73670;SDS011;61968;48.178;11.566;2022-12-18T06:27:40;26.83;;;10.40;;
73670;SDS011;61968;48.178;11.566;2022-12-18T06:30:07;24.75;;;9.35;;
73670;SDS011;61968;48.178;11.566;2022-12-18T06:32:36;35.08;;;9.88;;
73670;SDS011;61968;48.178;11.566;2022-12-18T06:35:03;29.98;;;9.40;;
73670;SDS011;61968;48.178;11.566;2022-12-18T06:37:30;27.40;;;8.15;;
73670;SDS011;61968;48.178;11.566;2022-12-18T06:42:23;22.77;;;9.05;;
73670;SDS011;61968;48.178;11.566;2022-12-18T06:47:16;22.83;;;7.43;;
73670;SDS011;61968;48.178;11.566;2022-12-18T06:49:44;24.23;;;8.30;;
73670;SDS011;61968;48.178;11.566;2022-12-18T06:52:11;26.58;;;9.27;;
73670;SDS011;61968;48.178;11.566;2022-12-18T06:54:37;21.02;;;8.55;;
73670;SDS011;61968;48.178;11.566;2022-12-18T06:57:04;24.98;;;8.88;;
73670;SDS011;61968;48.178;11.566;2022-12-18T06:59:30;21.48;;;8.02;;
73670;SDS011;61968;48.178;11.566;2022-12-18T07:01:57;22.48;;;8.23;;
73670;SDS011;61968;48.178;11.566;2022-12-18T07:04:27;25.70;;;9.23;;
73670;SDS011;61968;48.178;11.566;2022-12-18T07:06:55;22.30;;;8.55;;
73670;SDS011;61968;48.178;11.566;2022-12-18T07:09:22;23.13;;;7.20;;
73670;SDS011;61968;48.178;11.566;2022-12-18T07:11:48;18.52;;;6.68;;
73670;SDS011;61968;48.178;11.566;2022-12-18T07:14:15;16.75;;;6.75;;
73670;SDS011;61968;48.178;11.566;2022-12-18T07:16:42;21.70;;;7.50;;
73670;SDS011;61968;48.178;11.566;2022-12-18T07:19:08;25.25;;;7.45;;
73670;SDS011;61968;48.178;11.566;2022-12-18T07:21:35;23.17;;;8.70;;
73670;SDS011;61968;48.178;11.566;2022-12-18T07:24:03;21.90;;;7.15;;
73670;SDS011;61968;48.178;11.566;2022-12-18T07:26:30;16.35;;;6.00;;
73670;SDS011;61968;48.178;11.566;2022-12-18T07:28:57;27.60;;;9.20;;
73670;SDS011;61968;48.178;11.566;2022-12-18T07:31:24;27.15;;;8.30;;
73670;SDS011;61968;48.178;11.566;2022-12-18T07:33:52;19.92;;;8.18;;
73670;SDS011;61968;48.178;11.566;2022-12-18T07:36:18;25.05;;;8.07;;
73670;SDS011;61968;48.178;11.566;2022-12-18T07:38:46;17.98;;;7.93;;
73670;SDS011;61968;48.178;11.566;2022-12-18T07:41:14;23.02;;;7.57;;
73670;SDS011;61968;48.178;11.566;2022-12-18T07:43:41;25.58;;;8.52;;
73670;SDS011;61968;48.178;11.566;2022-12-18T07:46:08;23.80;;;8.38;;
73670;SDS011;61968;48.178;11.566;2022-12-18T07:48:36;22.25;;;7.40;;
73670;SDS011;61968;48.178;11.566;2022-12-18T07:51:04;23.77;;;7.95;;
73670;SDS011;61968;48.178;11.566;2022-12-18T07:53:32;24.98;;;8.77;;
73670;SDS011;61968;48.178;11.566;2022-12-18T07:56:00;20.80;;;7.22;;
73670;SDS011;61968;48.178;11.566;2022-12-18T07:58:29;26.63;;;9.27;;
73670;SDS011;61968;48.178;11.566;2022-12-18T08:01:01;22.10;;;8.18;;
73670;SDS011;61968;48.178;11.566;2022-12-18T08:03:28;29.02;;;9.15;;
73670;SDS011;61968;48.178;11.566;2022-12-18T08:05:57;31.92;;;10.95;;
73670;SDS011;61968;48.178;11.566;2022-12-18T08:08:25;23.42;;;8.30;;
73670;SDS011;61968;48.178;11.566;2022-12-18T08:10:51;17.77;;;8.35;;
73670;SDS011;61968;48.178;11.566;2022-12-18T08:13:18;29.50;;;9.73;;
73670;SDS011;61968;48.178;11.566;2022-12-18T08:15:46;21.67;;;9.35;;
73670;SDS011;61968;48.178;11.566;2022-12-18T08:18:12;30.10;;;9.88;;
73670;SDS011;61968;48.178;11.566;2022-12-18T08:20:39;18.98;;;6.88;;
73670;SDS011;61968;48.178;11.566;2022-12-18T08:23:05;24.30;;;8.55;;
73670;SDS011;61968;48.178;11.566;2022-12-18T08:25:32;20.98;;;6.10;;
73670;SDS011;61968;48.178;11.566;2022-12-18T08:28:00;26.02;;;8.05;;
73670;SDS011;61968;48.178;11.566;2022-12-18T08:30:26;30.50;;;9.32;;
73670;SDS011;61968;48.178;11.566;2022-12-18T08:32:54;28.00;;;8.23;;
73670;SDS011;61968;48.178;11.566;2022-12-18T08:35:21;29.25;;;9.52;;
73670;SDS011;61968;48.178;11.566;2022-12-18T08:37:47;23.63;;;9.88;;
73670;SDS011;61968;48.178;11.566;2022-12-18T08:40:14;23.77;;;8.43;;
73670;SDS011;61968;48.178;11.566;2022-12-18T08:42:40;17.73;;;6.47;;
73670;SDS011;61968;48.178;11.566;2022-12-18T08:45:24;28.63;;;9.13;;
73670;SDS011;61968;48.178;11.566;2022-12-18T08:47:51;25.80;;;9.90;;
73670;SDS011;61968;48.178;11.566;2022-12-18T08:50:19;25.20;;;10.18;;
73670;SDS011;61968;48.178;11.566;2022-12-18T08:52:46;24.13;;;9.38;;
73670;SDS011;61968;48.178;11.566;2022-12-18T08:55:13;24.92;;;8.48;;
73670;SDS011;61968;48.178;11.566;2022-12-18T08:57:40;24.83;;;8.50;;
73670;SDS011;61968;48.178;11.566;2022-12-18T09:00:07;22.73;;;6.78;;
73670;SDS011;61968;48.178;11.566;2022-12-18T09:02:34;22.45;;;8.30;;
73670;SDS011;61968;48.178;11.566;2022-12-18T09:05:01;23.45;;;8.00;;
73670;SDS011;61968;48.178;11.566;2022-12-18T09:07:29;25.45;;;8.07;;
73670;SDS011;61968;48.178;11.566;2022-12-18T09:09:55;21.35;;;8.63;;
73670;SDS011;61968;48.178;11.566;2022-12-18T09:12:22;18.42;;;6.78;;
73670;SDS011;61968;48.178;11.566;2022-12-18T09:14:48;24.52;;;7.50;;
73670;SDS011;61968;48.178;11.566;2022-12-18T09:17:15;29.67;;;9.02;;
73670;SDS011;61968;48.178;11.566;2022-12-18T09:19:41;22.25;;;6.97;;
73670;SDS011;61968;48.178;11.566;2022-12-18T09:22:08;25.05;;;11.13;;
73670;SDS011;61968;48.178;11.566;2022-12-18T09:24:37;23.75;;;8.27;;
73670;SDS011;61968;48.178;11.566;2022-12-18T09:27:03;25.73;;;10.02;;
73670;SDS011;61968;48.178;11.566;2022-12-18T09:29:30;27.95;;;10.60;;
73670;SDS011;61968;48.178;11.566;2022-12-18T09:31:56;21.85;;;8.10;;
73670;SDS011;61968;48.178;11.566;2022-12-18T09:34:23;26.33;;;9.98;;
73670;SDS011;61968;48.178;11.566;2022-12-18T09:36:50;21.70;;;8.65;;
73670;SDS011;61968;48.178;11.566;2022-12-18T09:39:16;25.20;;;9.65;;
73670;SDS011;61968;48.178;11.566;2022-12-18T09:41:45;22.60;;;8.35;;
73670;SDS011;61968;48.178;11.566;2022-12-18T09:44:20;23.13;;;8.48;;
73670;SDS011;61968;48.178;11.566;2022-12-18T09:46:52;21.13;;;8.10;;
73670;SDS011;61968;48.178;11.566;2022-12-18T09:49:25;39.47;;;13.07;;
73670;SDS011;61968;48.178;11.566;2022-12-18T09:51:55;21.88;;;8.95;;
73670;SDS011;61968;48.178;11.566;2022-12-18T09:54:30;25.05;;;8.73;;
73670;SDS011;61968;48.178;11.566;2022-12-18T09:57:02;21.42;;;8.13;;
73670;SDS011;61968;48.178;11.566;2022-12-18T09:59:30;17.50;;;7.13;;
73670;SDS011;61968;48.178;11.566;2022-12-18T10:02:05;20.33;;;8.40;;
73670;SDS011;61968;48.178;11.566;2022-12-18T10:04:39;22.95;;;7.63;;
73670;SDS011;61968;48.178;11.566;2022-12-18T10:07:07;23.65;;;9.07;;
73670;SDS011;61968;48.178;11.566;2022-12-18T10:09:42;22.08;;;7.65;;
73670;SDS011;61968;48.178;11.566;2022-12-18T10:12:19;20.48;;;7.88;;
73670;SDS011;61968;48.178;11.566;2022-12-18T10:14:52;22.95;;;10.00;;
73670;SDS011;61968;48.178;11.566;2022-12-18T10:17:24;22.55;;;8.10;;
73670;SDS011;61968;48.178;11.566;2022-12-18T10:19:58;20.17;;;7.47;;
73670;SDS011;61968;48.178;11.566;2022-12-18T10:22:37;21.48;;;8.98;;
73670;SDS011;61968;48.178;11.566;2022-12-18T10:25:17;21.67;;;8.82;;
73670;SDS011;61968;48.178;11.566;2022-12-18T10:27:49;25.42;;;9.98;;
73670;SDS011;61968;48.178;11.566;2022-12-18T10:30:20;21.63;;;9.13;;
73670;SDS011;61968;48.178;11.566;2022-12-18T10:32:48;24.95;;;10.35;;
73670;SDS011;61968;48.178;11.566;2022-12-18T10:35:17;19.77;;;9.82;;
73670;SDS011;61968;48.178;11.566;2022-12-18T10:38:05;26.38;;;9.23;;
73670;SDS011;61968;48.178;11.566;2022-12-18T10:40:36;23.02;;;8.98;;
73670;SDS011;61968;48.178;11.566;2022-12-18T10:43:19;26.98;;;10.55;;
73670;SDS011;61968;48.178;11.566;2022-12-18T10:46:01;23.48;;;8.18;;
73670;SDS011;61968;48.178;11.566;2022-12-18T10:48:39;20.23;;;8.05;;
73670;SDS011;61968;48.178;11.566;2022-12-18T10:51:19;19.70;;;8.93;;
73670;SDS011;61968;48.178;11.566;2022-12-18T10:53:50;17.50;;;5.97;;
73670;SDS011;61968;48.178;11.566;2022-12-18T10:56:20;39.47;;;11.25;;
73670;SDS011;61968;48.178;11.566;2022-12-18T10:58:54;32.83;;;12.52;;
73670;SDS011;61968;48.178;11.566;2022-12-18T11:01:23;36.58;;;12.15;;
73670;SDS011;61968;48.178;11.566;2022-12-18T11:03:58;34.17;;;13.80;;
73670;SDS011;61968;48.178;11.566;2022-12-18T11:06:26;26.33;;;9.00;;
73670;SDS011;61968;48.178;11.566;2022-12-18T11:08:57;19.73;;;8.63;;
73670;SDS011;61968;48.178;11.566;2022-12-18T11:11:25;21.85;;;8.45;;
73670;SDS011;61968;48.178;11.566;2022-12-18T11:13:58;22.42;;;8.68;;
73670;SDS011;61968;48.178;11.566;2022-12-18T11:16:28;26.13;;;8.35;;
73670;SDS011;61968;48.178;11.566;2022-12-18T11:19:06;25.08;;;9.82;;
73670;SDS011;61968;48.178;11.566;2022-12-18T11:21:39;22.13;;;8.15;;
73670;SDS011;61968;48.178;11.566;2022-12-18T11:24:07;17.77;;;7.85;;
73670;SDS011;61968;48.178;11.566;2022-12-18T11:26:46;20.02;;;7.75;;
73670;SDS011;61968;48.178;11.566;2022-12-18T11:29:17;24.98;;;10.20;;
73670;SDS011;61968;48.178;11.566;2022-12-18T11:31:48;32.08;;;10.70;;
73670;SDS011;61968;48.178;11.566;2022-12-18T11:36:46;21.05;;;8.18;;
73670;SDS011;61968;48.178;11.566;2022-12-18T11:39:15;18.65;;;7.22;;
73670;SDS011;61968;48.178;11.566;2022-12-18T11:41:47;21.35;;;8.25;;
73670;SDS011;61968;48.178;11.566;2022-12-18T11:44:38;22.45;;;9.13;;
73670;SDS011;61968;48.178;11.566;2022-12-18T11:47:10;22.52;;;8.30;;
73670;SDS011;61968;48.178;11.566;2022-12-18T11:49:44;23.63;;;8.93;;
73670;SDS011;61968;48.178;11.566;2022-12-18T11:52:15;20.08;;;8.13;;
73670;SDS011;61968;48.178;11.566;2022-12-18T11:54:45;18.42;;;7.55;;
73670;SDS011;61968;48.178;11.566;2022-12-18T11:57:16;20.52;;;7.10;;
73670;SDS011;61968;48.178;11.566;2022-12-18T12:00:02;20.83;;;6.95;;
73670;SDS011;61968;48.178;11.566;2022-12-18T12:02:41;20.52;;;7.18;;
73670;SDS011;61968;48.178;11.566;2022-12-18T12:07:59;20.75;;;8.13;;
73670;SDS011;61968;48.178;11.566;2022-12-18T12:10:37;21.33;;;7.75;;
73670;SDS011;61968;48.178;11.566;2022-12-18T12:13:23;23.73;;;8.80;;
73670;SDS011;61968;48.178;11.566;2022-12-18T12:16:07;20.80;;;7.25;;
73670;SDS011;61968;48.178;11.566;2022-12-18T12:18:45;22.02;;;7.47;;
73670;SDS011;61968;48.178;11.566;2022-12-18T12:21:23;16.42;;;6.38;;
73670;SDS011;61968;48.178;11.566;2022-12-18T12:23:56;19.75;;;7.15;;
73670;SDS011;61968;48.178;11.566;2022-12-18T12:26:30;19.38;;;7.22;;
73670;SDS011;61968;48.178;11.566;2022-12-18T12:29:09;23.35;;;9.68;;
73670;SDS011;61968;48.178;11.566;2022-12-18T12:31:55;14.60;;;6.75;;
73670;SDS011;61968;48.178;11.566;2022-12-18T12:34:31;13.77;;;6.68;;
73670;SDS011;61968;48.178;11.566;2022-12-18T12:37:10;18.55;;;6.20;;
73670;SDS011;61968;48.178;11.566;2022-12-18T12:42:14;18.98;;;6.38;;
73670;SDS011;61968;48.178;11.566;2022-12-18T12:44:59;13.68;;;5.95;;
73670;SDS011;61968;48.178;11.566;2022-12-18T12:47:33;17.98;;;7.28;;
73670;SDS011;61968;48.178;11.566;2022-12-18T12:52:39;16.58;;;5.13;;
73670;SDS011;61968;48.178;11.566;2022-12-18T12:55:12;20.65;;;6.57;;
73670;SDS011;61968;48.178;11.566;2022-12-18T12:57:43;23.85;;;7.47;;
73670;SDS011;61968;48.178;11.566;2022-12-18T13:00:15;14.43;;;6.47;;
73670;SDS011;61968;48.178;11.566;2022-12-18T13:02:47;17.35;;;6.70;;
73670;SDS011;61968;48.178;11.566;2022-12-18T13:05:19;16.55;;;6.95;;
73670;SDS011;61968;48.178;11.566;2022-12-18T13:10:25;17.02;;;6.47;;
73670;SDS011;61968;48.178;11.566;2022-12-18T13:12:58;18.58;;;6.90;;
73670;SDS011;61968;48.178;11.566;2022-12-18T13:15:27;16.10;;;7.20;;
73670;SDS011;61968;48.178;11.566;2022-12-18T13:20:48;19.17;;;7.50;;
73670;SDS011;61968;48.178;11.566;2022-12-18T13:23:23;16.00;;;6.38;;
73670;SDS011;61968;48.178;11.566;2022-12-18T13:25:54;19.73;;;8.57;;
73670;SDS011;61968;48.178;11.566;2022-12-18T13:28:21;15.70;;;5.22;;
73670;SDS011;61968;48.178;11.566;2022-12-18T13:30:51;17.52;;;5.45;;
73670;SDS011;61968;48.178;11.566;2022-12-18T13:33:40;17.15;;;7.50;;
73670;SDS011;61968;48.178;11.566;2022-12-18T13:36:27;19.63;;;6.18;;
73670;SDS011;61968;48.178;11.566;2022-12-18T13:41:48;18.17;;;6.20;;
73670;SDS011;61968;48.178;11.566;2022-12-18T13:44:23;21.70;;;6.90;;
73670;SDS011;61968;48.178;11.566;2022-12-18T13:46:52;18.05;;;7.47;;
73670;SDS011;61968;48.178;11.566;2022-12-18T13:49:23;14.40;;;6.47;;
73670;SDS011;61968;48.178;11.566;2022-12-18T13:51:52;20.80;;;7.00;;
73670;SDS011;61968;48.178;11.566;2022-12-18T13:54:22;18.35;;;6.65;;
73670;SDS011;61968;48.178;11.566;2022-12-18T13:56:52;19.52;;;8.20;;
73670;SDS011;61968;48.178;11.566;2022-12-18T13:59:19;20.23;;;7.15;;
73670;SDS011;61968;48.178;11.566;2022-12-18T14:01:48;20.05;;;7.40;;
73670;SDS011;61968;48.178;11.566;2022-12-18T14:04:19;16.13;;;6.05;;
73670;SDS011;61968;48.178;11.566;2022-12-18T14:06:50;17.27;;;6.97;;
73670;SDS011;61968;48.178;11.566;2022-12-18T14:09:20;19.88;;;7.47;;
73670;SDS011;61968;48.178;11.566;2022-12-18T14:11:50;21.75;;;8.18;;
73670;SDS011;61968;48.178;11.566;2022-12-18T14:14:40;25.85;;;9.23;;
73670;SDS011;61968;48.178;11.566;2022-12-18T14:17:08;18.42;;;8.50;;
73670;SDS011;61968;48.178;11.566;2022-12-18T14:19:37;20.58;;;7.68;;
73670;SDS011;61968;48.178;11.566;2022-12-18T14:22:11;17.35;;;6.18;;
73670;SDS011;61968;48.178;11.566;2022-12-18T14:24:43;16.85;;;8.07;;
73670;SDS011;61968;48.178;11.566;2022-12-18T14:27:19;17.08;;;9.23;;
73670;SDS011;61968;48.178;11.566;2022-12-18T14:29:48;23.25;;;9.27;;
73670;SDS011;61968;48.178;11.566;2022-12-18T14:32:15;19.08;;;8.15;;
73670;SDS011;61968;48.178;11.566;2022-12-18T14:34:45;17.95;;;7.85;;
73670;SDS011;61968;48.178;11.566;2022-12-18T14:37:13;19.75;;;6.72;;
73670;SDS011;61968;48.178;11.566;2022-12-18T14:39:51;15.85;;;6.25;;
73670;SDS011;61968;48.178;11.566;2022-12-18T14:42:19;21.50;;;9.32;;
73670;SDS011;61968;48.178;11.566;2022-12-18T14:44:46;22.00;;;7.25;;
73670;SDS011;61968;48.178;11.566;2022-12-18T14:47:13;22.52;;;8.50;;
73670;SDS011;61968;48.178;11.566;2022-12-18T14:49:41;23.20;;;9.00;;
73670;SDS011;61968;48.178;11.566;2022-12-18T14:52:17;19.02;;;6.78;;
73670;SDS011;61968;48.178;11.566;2022-12-18T14:54:49;15.75;;;6.38;;
73670;SDS011;61968;48.178;11.566;2022-12-18T14:57:18;21.55;;;7.97;;
73670;SDS011;61968;48.178;11.566;2022-12-18T14:59:48;23.05;;;7.88;;
73670;SDS011;61968;48.178;11.566;2022-12-18T15:02:18;20.25;;;8.20;;
73670;SDS011;61968;48.178;11.566;2022-12-18T15:04:47;21.08;;;8.82;;